createdAt,value
2017-06-12T00:01:01.306Z,0
2017-06-12T00:02:11.591Z,0
2017-06-12T00:03:21.869Z,0
2017-06-12T00:04:32.161Z,0
2017-06-12T00:05:42.127Z,0
2017-06-12T00:06:52.408Z,0
2017-06-12T00:08:02.690Z,0
2017-06-12T00:09:12.983Z,0
2017-06-12T00:10:22.950Z,0
2017-06-12T00:11:33.227Z,0
2017-06-12T00:12:43.195Z,0
2017-06-12T00:13:53.159Z,0
2017-06-12T00:15:03.434Z,0
2017-06-12T00:16:13.090Z,0
2017-06-12T00:17:23.371Z,0
2017-06-12T00:18:33.641Z,0
2017-06-12T00:19:43.915Z,0
2017-06-12T00:20:53.897Z,0
2017-06-12T00:22:04.175Z,0
2017-06-12T00:23:14.141Z,0
2017-06-12T00:24:24.426Z,0
2017-06-12T00:25:34.711Z,0
2017-06-12T00:26:44.991Z,0
2017-06-12T00:27:55.263Z,0
2017-06-12T00:29:04.940Z,0
2017-06-12T00:30:14.923Z,0
2017-06-12T00:31:25.206Z,0
2017-06-12T00:32:35.183Z,0
2017-06-12T00:33:44.840Z,0
2017-06-12T00:34:55.127Z,0
2017-06-12T00:36:05.401Z,0
2017-06-12T00:37:15.685Z,0
2017-06-12T00:38:25.963Z,0
2017-06-12T00:39:35.940Z,0
2017-06-12T00:40:46.220Z,0
2017-06-12T00:41:56.498Z,0
2017-06-12T00:43:06.780Z,0
2017-06-12T00:44:17.064Z,0
2017-06-12T00:45:27.351Z,0
2017-06-12T00:46:37.314Z,0
2017-06-12T00:47:47.594Z,0
2017-06-12T00:48:57.870Z,0
2017-06-12T00:50:07.837Z,0
2017-06-12T00:51:17.807Z,0
2017-06-12T00:52:28.085Z,0
2017-06-12T00:53:38.360Z,0
2017-06-12T00:54:48.335Z,0
2017-06-12T00:55:58.612Z,0
2017-06-12T00:57:08.901Z,0
2017-06-12T00:58:19.178Z,0
2017-06-12T00:59:29.451Z,0
2017-06-12T01:00:39.428Z,0
2017-06-12T01:01:49.715Z,0
2017-06-12T01:02:59.989Z,0
2017-06-12T01:04:10.270Z,0
2017-06-12T01:05:20.563Z,0
2017-06-12T01:06:30.540Z,0
2017-06-12T01:07:40.820Z,0
2017-06-12T01:08:51.121Z,0
2017-06-12T01:10:01.404Z,0
2017-06-12T01:11:11.382Z,0
2017-06-12T01:12:21.679Z,0
2017-06-12T01:13:31.658Z,0
2017-06-12T01:14:41.939Z,0
2017-06-12T01:15:52.222Z,0
2017-06-12T01:17:02.191Z,0
2017-06-12T01:18:12.472Z,0
2017-06-12T01:19:22.446Z,0
2017-06-12T01:20:32.734Z,0
2017-06-12T01:21:43.013Z,0
2017-06-12T01:22:53.292Z,0
2017-06-12T01:24:03.257Z,0
2017-06-12T01:25:12.915Z,0
2017-06-12T01:26:22.897Z,0
2017-06-12T01:27:32.570Z,0
2017-06-12T01:28:42.844Z,0
2017-06-12T01:29:53.129Z,0
2017-06-12T01:31:03.096Z,0
2017-06-12T01:32:13.379Z,0
2017-06-12T01:33:23.347Z,0
2017-06-12T01:34:33.630Z,0
2017-06-12T01:35:43.602Z,0
2017-06-12T01:36:53.880Z,0
2017-06-12T01:38:03.859Z,0
2017-06-12T01:39:13.830Z,0
2017-06-12T01:40:24.101Z,0
2017-06-12T01:41:34.072Z,0
2017-06-12T01:42:44.359Z,0
2017-06-12T01:43:54.632Z,0
2017-06-12T01:45:04.599Z,0
2017-06-12T01:46:14.879Z,0
2017-06-12T01:47:25.155Z,0
2017-06-12T01:48:35.128Z,0
2017-06-12T01:49:45.409Z,0
2017-06-12T01:50:55.692Z,0
2017-06-12T01:52:05.967Z,0
2017-06-12T01:53:15.940Z,0
2017-06-12T01:54:25.911Z,0
2017-06-12T01:55:36.182Z,0
2017-06-12T01:56:45.828Z,0
2017-06-12T01:57:56.121Z,0
2017-06-12T01:59:06.407Z,0
2017-06-12T02:00:16.702Z,0
2017-06-12T02:01:26.972Z,0
2017-06-12T02:02:37.255Z,0
2017-06-12T02:03:47.541Z,0
2017-06-12T02:04:57.820Z,0
2017-06-12T02:06:07.161Z,0
2017-06-12T02:07:17.444Z,0
2017-06-12T02:08:27.734Z,0
2017-06-12T02:09:38.029Z,0
2017-06-12T02:10:48.311Z,0
2017-06-12T02:11:58.277Z,0
2017-06-12T02:13:08.554Z,0
2017-06-12T02:14:18.523Z,0
2017-06-12T02:15:28.807Z,0
2017-06-12T02:16:39.089Z,0
2017-06-12T02:17:49.047Z,0
2017-06-12T02:18:59.353Z,0
2017-06-12T02:20:09.319Z,0
2017-06-12T02:21:19.594Z,0
2017-06-12T02:22:29.882Z,0
2017-06-12T02:23:40.172Z,0
2017-06-12T02:24:50.457Z,0
2017-06-12T02:26:00.745Z,0
2017-06-12T02:27:11.031Z,0
2017-06-12T02:28:21.302Z,0
2017-06-12T02:29:31.574Z,0
2017-06-12T02:30:41.542Z,0
2017-06-12T02:31:51.572Z,0
2017-06-12T02:33:01.860Z,0
2017-06-12T02:34:11.523Z,0
2017-06-12T02:35:21.492Z,0
2017-06-12T02:36:31.459Z,0
2017-06-12T02:37:41.427Z,0
2017-06-12T02:38:51.717Z,0
2017-06-12T02:40:01.381Z,0
2017-06-12T02:41:11.350Z,0
2017-06-12T02:42:21.627Z,0
2017-06-12T02:43:31.592Z,0
2017-06-12T02:44:41.876Z,0
2017-06-12T02:45:52.153Z,0
2017-06-12T02:47:02.434Z,0
2017-06-12T02:48:12.085Z,0
2017-06-12T02:49:22.364Z,0
2017-06-12T02:50:32.335Z,0
2017-06-12T02:51:42.625Z,0
2017-06-12T02:52:52.899Z,0
2017-06-12T02:54:03.174Z,0
2017-06-12T02:55:13.456Z,0
2017-06-12T02:56:23.732Z,0
2017-06-12T02:57:34.011Z,0
2017-06-12T02:58:44.292Z,0
2017-06-12T02:59:54.573Z,0
2017-06-12T03:01:04.865Z,0
2017-06-12T03:02:15.138Z,0
2017-06-12T03:03:25.107Z,0
2017-06-12T03:04:35.076Z,0
2017-06-12T03:05:45.363Z,0
2017-06-12T03:06:55.654Z,0
2017-06-12T03:08:05.636Z,0
2017-06-12T03:09:15.929Z,0
2017-06-12T03:10:25.894Z,0
2017-06-12T03:11:36.179Z,0
2017-06-12T03:12:46.462Z,0
2017-06-12T03:13:56.115Z,0
2017-06-12T03:15:05.768Z,0
2017-06-12T03:16:16.052Z,0
2017-06-12T03:17:26.325Z,4
2017-06-12T03:18:36.607Z,0
2017-06-12T03:19:46.576Z,0
2017-06-12T03:20:56.853Z,0
2017-06-12T03:22:06.827Z,4
2017-06-12T03:23:17.106Z,4
2017-06-12T03:24:27.420Z,0
2017-06-12T03:25:37.715Z,4
2017-06-12T03:26:47.994Z,4
2017-06-12T03:27:58.297Z,4
2017-06-12T03:29:08.267Z,4
2017-06-12T03:30:18.549Z,4
2017-06-12T03:31:28.828Z,4
2017-06-12T03:32:39.135Z,8
2017-06-12T03:33:49.424Z,8
2017-06-12T03:34:59.700Z,8
2017-06-12T03:36:09.669Z,8
2017-06-12T03:37:19.634Z,8
2017-06-12T03:38:29.913Z,12
2017-06-12T03:39:40.191Z,8
2017-06-12T03:40:50.479Z,8
2017-06-12T03:42:00.762Z,8
2017-06-12T03:43:11.079Z,8
2017-06-12T03:44:21.363Z,8
2017-06-12T03:45:31.640Z,12
2017-06-12T03:46:41.921Z,16
2017-06-12T03:47:51.900Z,16
2017-06-12T03:49:02.175Z,16
2017-06-12T03:50:12.146Z,16
2017-06-12T03:51:22.424Z,20
2017-06-12T03:52:32.709Z,20
2017-06-12T03:53:42.668Z,28
2017-06-12T03:54:52.934Z,28
2017-06-12T03:56:02.901Z,40
2017-06-12T03:57:13.172Z,28
2017-06-12T03:58:23.454Z,24
2017-06-12T03:59:33.728Z,16
2017-06-12T04:00:43.386Z,356
2017-06-12T04:01:53.660Z,768
2017-06-12T04:03:03.945Z,780
2017-06-12T04:04:14.227Z,668
2017-06-12T04:05:24.191Z,652
2017-06-12T04:06:34.473Z,828
2017-06-12T04:07:44.760Z,892
2017-06-12T04:08:55.035Z,1140
2017-06-12T04:10:05.005Z,1104
2017-06-12T04:11:15.297Z,980
2017-06-12T04:12:25.571Z,1132
2017-06-12T04:13:35.537Z,1328
2017-06-12T04:14:45.811Z,1404
2017-06-12T04:15:56.105Z,1276
2017-06-12T04:17:06.385Z,1308
2017-06-12T04:18:16.349Z,2716
2017-06-12T04:19:26.630Z,2200
2017-06-12T04:20:36.601Z,2928
2017-06-12T04:21:46.261Z,2264
2017-06-12T04:22:56.234Z,1248
2017-06-12T04:24:06.524Z,1208
2017-06-12T04:25:16.802Z,852
2017-06-12T04:26:27.085Z,852
2017-06-12T04:27:37.364Z,1064
2017-06-12T04:28:47.641Z,1128
2017-06-12T04:29:57.611Z,612
2017-06-12T04:31:07.894Z,668
2017-06-12T04:32:18.181Z,656
2017-06-12T04:33:28.459Z,432
2017-06-12T04:34:38.430Z,384
2017-06-12T04:35:48.704Z,400
2017-06-12T04:36:58.679Z,376
2017-06-12T04:38:08.074Z,432
2017-06-12T04:39:18.052Z,564
2017-06-12T04:40:28.020Z,500
2017-06-12T04:41:37.982Z,404
2017-06-12T04:42:47.949Z,536
2017-06-12T04:43:58.230Z,660
2017-06-12T04:45:08.522Z,504
2017-06-12T04:46:18.801Z,456
2017-06-12T04:47:28.799Z,588
2017-06-12T04:48:39.077Z,520
2017-06-12T04:49:49.372Z,552
2017-06-12T04:50:59.655Z,644
2017-06-12T04:52:09.935Z,608
2017-06-12T04:53:20.210Z,680
2017-06-12T04:54:30.493Z,860
2017-06-12T04:55:40.465Z,1004
2017-06-12T04:56:50.748Z,972
2017-06-12T04:58:01.253Z,948
2017-06-12T04:59:11.561Z,1140
2017-06-12T05:00:21.846Z,1460
2017-06-12T05:01:32.123Z,1548
2017-06-12T05:02:42.419Z,1864
2017-06-12T05:03:52.385Z,1844
2017-06-12T05:05:02.669Z,1640
2017-06-12T05:06:12.952Z,1560
2017-06-12T05:07:22.929Z,1348
2017-06-12T05:08:33.207Z,1196
2017-06-12T05:09:43.480Z,1164
2017-06-12T05:10:53.759Z,1000
2017-06-12T05:12:03.728Z,880
2017-06-12T05:13:13.397Z,772
2017-06-12T05:14:23.859Z,1032
2017-06-12T05:15:34.145Z,1272
2017-06-12T05:16:44.439Z,1432
2017-06-12T05:17:54.717Z,1428
2017-06-12T05:19:05.004Z,1212
2017-06-12T05:20:15.289Z,1324
2017-06-12T05:21:25.266Z,1348
2017-06-12T05:22:35.555Z,2264
2017-06-12T05:23:45.854Z,2476
2017-06-12T05:24:56.129Z,2468
2017-06-12T05:26:06.102Z,2632
2017-06-12T05:27:16.071Z,2404
2017-06-12T05:28:26.357Z,2624
2017-06-12T05:29:36.640Z,1920
2017-06-12T05:30:46.926Z,1568
2017-06-12T05:31:57.211Z,1468
2017-06-12T05:33:07.182Z,1584
2017-06-12T05:34:17.461Z,1320
2017-06-12T05:35:27.760Z,1924
2017-06-12T05:36:38.070Z,2472
2017-06-12T05:37:48.426Z,2688
2017-06-12T05:38:58.416Z,2280
2017-06-12T05:40:08.738Z,2720
2017-06-12T05:41:19.109Z,2728
2017-06-12T05:42:29.122Z,3080
2017-06-12T05:43:39.108Z,2160
2017-06-12T05:44:49.381Z,2368
2017-06-12T05:45:59.672Z,1840
2017-06-12T05:47:09.693Z,1628
2017-06-12T05:48:20.009Z,1488
2017-06-12T05:49:29.680Z,1808
2017-06-12T05:50:39.672Z,2400
2017-06-12T05:51:49.654Z,2776
2017-06-12T05:52:59.962Z,2696
2017-06-12T05:54:10.340Z,2276
2017-06-12T05:55:20.662Z,2196
2017-06-12T05:56:30.674Z,2764
2017-06-12T05:57:41.001Z,2800
2017-06-12T05:58:50.966Z,2700
2017-06-12T06:00:00.941Z,2320
2017-06-12T06:01:11.262Z,2196
2017-06-12T06:02:21.594Z,1580
2017-06-12T06:03:31.920Z,1312
2017-06-12T06:04:41.989Z,1340
2017-06-12T06:05:51.974Z,1352
2017-06-12T06:07:02.304Z,1524
2017-06-12T06:08:12.721Z,1496
2017-06-12T06:09:23.093Z,1272
2017-06-12T06:10:33.432Z,1112
2017-06-12T06:11:43.796Z,1456
2017-06-12T06:12:53.780Z,1688
2017-06-12T06:14:04.117Z,1824
2017-06-12T06:15:14.406Z,1960
2017-06-12T06:16:24.404Z,2764
2017-06-12T06:17:34.766Z,3016
2017-06-12T06:18:44.805Z,3220
2017-06-12T06:19:55.119Z,3744
2017-06-12T06:21:05.422Z,3576
2017-06-12T06:22:15.737Z,3388
2017-06-12T06:23:26.061Z,2868
2017-06-12T06:24:35.731Z,2572
2017-06-12T06:25:45.725Z,2704
2017-06-12T06:26:56.059Z,2332
2017-06-12T06:28:06.047Z,2208
2017-06-12T06:29:16.353Z,2268
2017-06-12T06:30:26.654Z,2644
2017-06-12T06:31:36.983Z,3584
2017-06-12T06:32:46.982Z,2740
2017-06-12T06:33:56.981Z,3200
2017-06-12T06:35:06.723Z,3304
2017-06-12T06:36:17.116Z,3472
2017-06-12T06:37:27.465Z,3432
2017-06-12T06:38:37.521Z,3572
2017-06-12T06:39:47.843Z,3456
2017-06-12T06:40:58.196Z,3704
2017-06-12T06:42:08.572Z,3508
2017-06-12T06:43:18.300Z,4716
2017-06-12T06:44:28.654Z,3256
2017-06-12T06:45:38.964Z,3240
2017-06-12T06:46:48.976Z,3080
2017-06-12T06:47:59.310Z,3452
2017-06-12T06:49:09.598Z,3260
2017-06-12T06:50:19.888Z,4376
2017-06-12T06:51:30.206Z,3432
2017-06-12T06:52:40.320Z,3676
2017-06-12T06:53:50.422Z,3936
2017-06-12T06:55:00.725Z,3648
2017-06-12T06:56:10.720Z,3308
2017-06-12T06:57:21.101Z,3600
2017-06-12T06:58:31.487Z,4824
2017-06-12T06:59:41.801Z,4088
2017-06-12T07:00:51.465Z,4316
2017-06-12T07:02:01.792Z,4492
2017-06-12T07:03:11.801Z,4888
2017-06-12T07:04:21.788Z,4264
2017-06-12T07:05:32.092Z,3748
2017-06-12T07:06:42.450Z,4648
2017-06-12T07:07:52.767Z,4872
2017-06-12T07:09:03.104Z,4756
2017-06-12T07:10:13.092Z,2888
2017-06-12T07:11:23.319Z,3212
2017-06-12T07:12:33.309Z,2440
2017-06-12T07:13:43.591Z,4032
2017-06-12T07:14:53.995Z,5104
2017-06-12T07:16:04.095Z,4228
2017-06-12T07:17:14.634Z,4476
2017-06-12T07:18:24.338Z,4712
2017-06-12T07:19:34.660Z,5568
2017-06-12T07:20:45.012Z,5124
2017-06-12T07:21:55.329Z,4308
2017-06-12T07:23:05.319Z,4152
2017-06-12T07:24:15.632Z,3556
2017-06-12T07:25:25.954Z,2756
2017-06-12T07:26:35.631Z,2228
2017-06-12T07:27:45.624Z,2928
2017-06-12T07:28:55.958Z,2376
2017-06-12T07:30:06.007Z,2776
2017-06-12T07:31:16.004Z,3176
2017-06-12T07:32:26.307Z,4348
2017-06-12T07:33:36.651Z,4236
2017-06-12T07:34:46.936Z,3004
2017-06-12T07:35:56.908Z,2836
2017-06-12T07:37:06.893Z,3112
2017-06-12T07:38:16.884Z,3272
2017-06-12T07:39:27.171Z,2808
2017-06-12T07:40:37.475Z,2744
2017-06-12T07:41:47.797Z,2788
2017-06-12T07:42:58.090Z,3024
2017-06-12T07:44:08.397Z,2404
2017-06-12T07:45:18.381Z,2708
2017-06-12T07:46:28.698Z,2172
2017-06-12T07:47:38.977Z,2952
2017-06-12T07:48:49.260Z,2052
2017-06-12T07:49:59.571Z,2312
2017-06-12T07:51:09.544Z,3424
2017-06-12T07:52:19.518Z,3540
2017-06-12T07:53:29.811Z,2924
2017-06-12T07:54:40.112Z,2812
2017-06-12T07:55:50.404Z,2512
2017-06-12T07:57:00.694Z,2436
2017-06-12T07:58:10.987Z,2612
2017-06-12T07:59:21.299Z,2876
2017-06-12T08:00:31.594Z,2104
2017-06-12T08:01:41.925Z,2896
2017-06-12T08:02:51.939Z,2744
2017-06-12T08:04:02.232Z,3132
2017-06-12T08:05:12.534Z,2668
2017-06-12T08:06:22.841Z,2468
2017-06-12T08:07:33.403Z,3304
2017-06-12T08:08:43.723Z,3096
2017-06-12T08:09:53.695Z,3052
2017-06-12T08:11:03.978Z,2872
2017-06-12T08:12:13.950Z,2768
2017-06-12T08:13:24.237Z,3284
2017-06-12T08:14:34.204Z,3332
2017-06-12T08:15:43.861Z,3528
2017-06-12T08:16:53.839Z,2660
2017-06-12T08:18:04.181Z,2384
2017-06-12T08:19:14.158Z,2480
2017-06-12T08:20:24.463Z,3308
2017-06-12T08:21:34.762Z,3540
2017-06-12T08:22:45.056Z,3836
2017-06-12T08:23:55.092Z,3632
2017-06-12T08:25:05.384Z,3184
2017-06-12T08:26:15.916Z,2796
2017-06-12T08:27:26.206Z,2512
2017-06-12T08:28:35.888Z,2904
2017-06-12T08:29:46.216Z,3016
2017-06-12T08:30:56.507Z,3244
2017-06-12T08:32:05.884Z,2664
2017-06-12T08:33:16.193Z,1912
2017-06-12T08:34:25.873Z,2168
2017-06-12T08:35:36.175Z,3040
2017-06-12T08:36:46.466Z,2548
2017-06-12T08:37:56.778Z,2588
2017-06-12T08:39:06.748Z,3248
2017-06-12T08:40:17.065Z,2504
2017-06-12T08:41:27.370Z,1980
2017-06-12T08:42:37.679Z,1844
2017-06-12T08:43:47.674Z,1808
2017-06-12T08:44:57.661Z,2156
2017-06-12T08:46:07.672Z,1940
2017-06-12T08:47:17.972Z,1980
2017-06-12T08:48:28.268Z,2108
2017-06-12T08:49:38.576Z,1896
2017-06-12T08:50:48.580Z,2412
2017-06-12T08:51:58.869Z,2492
2017-06-12T08:53:08.570Z,2084
2017-06-12T08:54:18.896Z,1804
2017-06-12T08:55:29.213Z,1760
2017-06-12T08:56:39.520Z,1908
2017-06-12T08:57:49.834Z,2572
2017-06-12T08:58:59.828Z,2676
2017-06-12T09:00:09.821Z,3552
2017-06-12T09:01:20.110Z,2800
2017-06-12T09:02:30.138Z,2340
2017-06-12T09:03:39.815Z,2648
2017-06-12T09:04:49.827Z,2828
2017-06-12T09:06:00.157Z,2436
2017-06-12T09:07:10.463Z,2200
2017-06-12T09:08:20.499Z,2916
2017-06-12T09:09:30.478Z,2692
2017-06-12T09:10:40.513Z,2900
2017-06-12T09:11:50.820Z,2320
2017-06-12T09:13:01.203Z,1980
2017-06-12T09:14:11.494Z,2616
2017-06-12T09:15:21.494Z,2560
2017-06-12T09:16:31.777Z,2360
2017-06-12T09:17:41.785Z,2424
2017-06-12T09:18:52.089Z,2496
2017-06-12T09:20:02.666Z,2568
2017-06-12T09:21:12.960Z,2796
2017-06-12T09:22:23.288Z,2700
2017-06-12T09:23:33.631Z,2844
2017-06-12T09:24:43.012Z,2732
2017-06-12T09:25:53.299Z,2292
2017-06-12T09:27:03.627Z,2604
2017-06-12T09:28:13.627Z,2936
2017-06-12T09:29:23.915Z,2832
2017-06-12T09:30:34.206Z,2964
2017-06-12T09:31:44.506Z,2448
2017-06-12T09:32:54.800Z,2316
2017-06-12T09:34:04.777Z,2936
2017-06-12T09:35:15.067Z,3216
2017-06-12T09:36:25.372Z,2752
2017-06-12T09:37:35.663Z,2132
2017-06-12T09:38:45.648Z,2060
2017-06-12T09:39:55.625Z,2068
2017-06-12T09:41:05.622Z,1904
2017-06-12T09:42:15.938Z,2240
2017-06-12T09:43:26.232Z,2460
2017-06-12T09:44:36.537Z,2368
2017-06-12T09:45:46.622Z,2620
2017-06-12T09:46:56.908Z,2808
2017-06-12T09:48:06.906Z,2648
2017-06-12T09:49:17.214Z,2360
2017-06-12T09:50:27.510Z,1960
2017-06-12T09:51:37.483Z,1792
2017-06-12T09:52:47.805Z,1716
2017-06-12T09:53:57.811Z,1652
2017-06-12T09:55:08.095Z,1932
2017-06-12T09:56:18.074Z,1728
2017-06-12T09:57:27.741Z,1492
2017-06-12T09:58:37.744Z,1976
2017-06-12T09:59:48.043Z,1828
2017-06-12T10:00:58.343Z,1764
2017-06-12T10:02:08.313Z,2528
2017-06-12T10:03:18.301Z,3140
2017-06-12T10:04:28.617Z,3096
2017-06-12T10:05:38.915Z,2804
2017-06-12T10:06:48.890Z,3244
2017-06-12T10:07:59.177Z,2216
2017-06-12T10:09:09.154Z,2828
2017-06-12T10:10:19.442Z,3484
2017-06-12T10:11:29.416Z,3544
2017-06-12T10:12:39.748Z,3112
2017-06-12T10:13:49.732Z,2836
2017-06-12T10:14:59.717Z,2724
2017-06-12T10:16:10.019Z,2716
2017-06-12T10:17:20.314Z,3452
2017-06-12T10:18:30.306Z,2928
2017-06-12T10:19:40.595Z,2548
2017-06-12T10:20:50.889Z,2944
2017-06-12T10:22:01.174Z,3208
2017-06-12T10:23:11.505Z,3232
2017-06-12T10:24:21.195Z,3216
2017-06-12T10:25:31.587Z,3180
2017-06-12T10:26:41.560Z,2832
2017-06-12T10:27:51.586Z,2716
2017-06-12T10:29:01.590Z,2968
2017-06-12T10:30:11.569Z,2876
2017-06-12T10:31:21.279Z,2996
2017-06-12T10:32:31.573Z,3728
2017-06-12T10:33:41.886Z,3900
2017-06-12T10:34:52.178Z,3616
2017-06-12T10:36:02.505Z,2884
2017-06-12T10:37:12.796Z,2620
2017-06-12T10:38:23.095Z,3300
2017-06-12T10:39:33.063Z,3216
2017-06-12T10:40:43.346Z,3036
2017-06-12T10:41:53.654Z,3100
2017-06-12T10:43:03.969Z,3340
2017-06-12T10:44:14.274Z,3604
2017-06-12T10:45:24.561Z,4016
2017-06-12T10:46:34.843Z,4132
2017-06-12T10:47:45.140Z,3372
2017-06-12T10:48:55.436Z,2164
2017-06-12T10:50:05.713Z,2244
2017-06-12T10:51:15.691Z,2644
2017-06-12T10:52:25.981Z,2372
2017-06-12T10:53:36.264Z,2172
2017-06-12T10:54:46.231Z,2200
2017-06-12T10:55:56.523Z,2100
2017-06-12T10:57:06.512Z,2300
2017-06-12T10:58:16.516Z,2764
2017-06-12T10:59:26.811Z,3548
2017-06-12T11:00:37.100Z,3964
2017-06-12T11:01:47.082Z,3744
2017-06-12T11:02:57.074Z,2596
2017-06-12T11:04:07.043Z,1880
2017-06-12T11:05:17.330Z,1772
2017-06-12T11:06:27.627Z,1896
2017-06-12T11:07:37.905Z,2328
2017-06-12T11:08:48.181Z,2940
2017-06-12T11:09:58.473Z,3248
2017-06-12T11:11:08.450Z,3700
2017-06-12T11:12:18.741Z,4204
2017-06-12T11:13:29.030Z,4296
2017-06-12T11:14:39.318Z,4536
2017-06-12T11:15:49.853Z,4684
2017-06-12T11:17:00.186Z,4752
2017-06-12T11:18:10.173Z,4724
2017-06-12T11:19:20.159Z,4588
2017-06-12T11:20:30.454Z,4348
2017-06-12T11:21:40.129Z,4408
2017-06-12T11:22:50.416Z,4504
2017-06-12T11:24:00.405Z,4656
2017-06-12T11:25:10.740Z,4636
2017-06-12T11:26:21.034Z,4680
2017-06-12T11:27:31.002Z,4496
2017-06-12T11:28:41.323Z,4092
2017-06-12T11:29:51.312Z,3452
2017-06-12T11:31:01.600Z,2484
2017-06-12T11:32:11.569Z,2104
2017-06-12T11:33:21.855Z,1972
2017-06-12T11:34:32.150Z,2232
2017-06-12T11:35:42.442Z,2640
2017-06-12T11:36:52.726Z,3060
2017-06-12T11:38:03.026Z,3512
2017-06-12T11:39:12.989Z,3832
2017-06-12T11:40:23.280Z,4260
2017-06-12T11:41:33.579Z,4540
2017-06-12T11:42:43.277Z,4760
2017-06-12T11:43:53.257Z,4592
2017-06-12T11:45:03.245Z,3928
2017-06-12T11:46:13.527Z,4024
2017-06-12T11:47:23.810Z,4064
2017-06-12T11:48:34.103Z,3732
2017-06-12T11:49:44.402Z,3364
2017-06-12T11:50:54.385Z,3204
2017-06-12T11:52:04.354Z,3028
2017-06-12T11:53:14.330Z,2516
2017-06-12T11:54:24.304Z,2092
2017-06-12T11:55:34.613Z,1896
2017-06-12T11:56:44.594Z,2080
2017-06-12T11:57:54.562Z,2284
2017-06-12T11:59:04.218Z,2768
2017-06-12T12:00:14.505Z,3448
2017-06-12T12:01:24.797Z,3740
2017-06-12T12:02:34.460Z,3676
2017-06-12T12:03:44.746Z,4084
2017-06-12T12:04:54.714Z,4140
2017-06-12T12:06:04.699Z,4192
2017-06-12T12:07:14.985Z,4004
2017-06-12T12:08:25.269Z,4308
2017-06-12T12:09:35.558Z,4224
2017-06-12T12:10:45.841Z,4276
2017-06-12T12:11:56.120Z,4436
2017-06-12T12:13:06.087Z,4512
2017-06-12T12:14:16.058Z,4552
2017-06-12T12:15:26.337Z,4688
2017-06-12T12:16:36.632Z,4340
2017-06-12T12:17:46.960Z,2944
2017-06-12T12:18:57.235Z,1988
2017-06-12T12:20:07.524Z,1836
2017-06-12T12:21:17.499Z,1892
2017-06-12T12:22:27.479Z,1924
2017-06-12T12:23:37.134Z,2004
2017-06-12T12:24:47.111Z,2116
2017-06-12T12:25:57.414Z,1848
2017-06-12T12:27:07.706Z,1660
2017-06-12T12:28:17.986Z,2192
2017-06-12T12:29:28.266Z,3344
2017-06-12T12:30:38.552Z,3868
2017-06-12T12:31:48.831Z,3476
2017-06-12T12:32:58.812Z,3576
2017-06-12T12:34:08.789Z,3464
2017-06-12T12:35:19.082Z,3488
2017-06-12T12:36:29.072Z,2980
2017-06-12T12:37:39.362Z,2808
2017-06-12T12:38:49.371Z,2848
2017-06-12T12:39:59.670Z,2856
2017-06-12T12:41:09.957Z,3228
2017-06-12T12:42:20.241Z,3780
2017-06-12T12:43:30.216Z,4240
2017-06-12T12:44:40.504Z,3856
2017-06-12T12:45:50.789Z,2712
2017-06-12T12:47:00.760Z,1876
2017-06-12T12:48:11.050Z,1552
2017-06-12T12:49:21.332Z,1492
2017-06-12T12:50:31.637Z,1588
2017-06-12T12:51:41.920Z,1752
2017-06-12T12:52:52.221Z,1956
2017-06-12T12:54:02.193Z,2268
2017-06-12T12:55:12.481Z,2384
2017-06-12T12:56:22.787Z,2700
2017-06-12T12:57:33.071Z,2632
2017-06-12T12:58:43.373Z,2212
2017-06-12T12:59:53.147Z,2364
2017-06-12T13:01:02.811Z,2120
2017-06-12T13:02:13.098Z,1952
2017-06-12T13:03:23.398Z,2244
2017-06-12T13:04:33.380Z,2532
2017-06-12T13:05:43.700Z,2508
2017-06-12T13:06:53.995Z,2336
2017-06-12T13:08:04.296Z,2156
2017-06-12T13:09:14.586Z,1968
2017-06-12T13:10:24.566Z,1808
2017-06-12T13:11:34.850Z,2104
2017-06-12T13:12:45.152Z,3448
2017-06-12T13:13:55.127Z,2876
2017-06-12T13:15:05.416Z,2244
2017-06-12T13:16:15.733Z,2500
2017-06-12T13:17:26.032Z,2348
2017-06-12T13:18:36.326Z,2636
2017-06-12T13:19:46.609Z,2936
2017-06-12T13:20:56.286Z,2468
2017-06-12T13:22:06.597Z,2396
2017-06-12T13:23:16.939Z,2832
2017-06-12T13:24:27.224Z,3272
2017-06-12T13:25:37.518Z,3516
2017-06-12T13:26:47.810Z,3624
2017-06-12T13:27:57.473Z,3760
2017-06-12T13:29:07.447Z,3876
2017-06-12T13:30:17.728Z,3856
2017-06-12T13:31:27.707Z,3940
2017-06-12T13:32:38.000Z,3768
2017-06-12T13:33:47.978Z,3704
2017-06-12T13:34:57.966Z,3864
2017-06-12T13:36:08.256Z,3668
2017-06-12T13:37:18.783Z,3664
2017-06-12T13:38:28.451Z,3632
2017-06-12T13:39:38.731Z,3292
2017-06-12T13:40:49.013Z,2920
2017-06-12T13:41:59.321Z,3052
2017-06-12T13:43:09.616Z,3032
2017-06-12T13:44:19.910Z,2656
2017-06-12T13:45:30.219Z,2420
2017-06-12T13:46:40.507Z,2392
2017-06-12T13:47:50.805Z,2896
2017-06-12T13:49:00.779Z,2932
2017-06-12T13:50:11.083Z,2688
2017-06-12T13:51:21.377Z,2184
2017-06-12T13:52:31.344Z,2040
2017-06-12T13:53:41.326Z,1784
2017-06-12T13:54:51.301Z,1528
2017-06-12T13:56:01.588Z,1688
2017-06-12T13:57:11.561Z,1620
2017-06-12T13:58:21.873Z,1660
2017-06-12T13:59:32.161Z,1712
2017-06-12T14:00:42.452Z,1928
2017-06-12T14:01:52.742Z,2336
2017-06-12T14:03:02.726Z,2772
2017-06-12T14:04:12.693Z,2332
2017-06-12T14:05:22.997Z,1936
2017-06-12T14:06:33.302Z,1864
2017-06-12T14:07:43.606Z,1736
2017-06-12T14:08:53.569Z,2200
2017-06-12T14:10:03.869Z,2392
2017-06-12T14:11:13.858Z,2756
2017-06-12T14:12:24.145Z,3060
2017-06-12T14:13:34.428Z,2860
2017-06-12T14:14:44.741Z,2436
2017-06-12T14:15:55.031Z,2508
2017-06-12T14:17:05.311Z,2508
2017-06-12T14:18:15.286Z,1968
2017-06-12T14:19:25.260Z,1764
2017-06-12T14:20:35.547Z,2100
2017-06-12T14:21:45.537Z,2744
2017-06-12T14:22:55.834Z,3336
2017-06-12T14:24:06.121Z,3620
2017-06-12T14:25:16.107Z,2676
2017-06-12T14:26:26.409Z,2352
2017-06-12T14:27:36.691Z,2724
2017-06-12T14:28:46.666Z,2928
2017-06-12T14:29:56.648Z,3000
2017-06-12T14:31:06.939Z,3024
2017-06-12T14:32:17.219Z,2924
2017-06-12T14:33:27.207Z,2824
2017-06-12T14:34:37.184Z,2632
2017-06-12T14:35:47.163Z,2624
2017-06-12T14:36:57.453Z,3100
2017-06-12T14:38:07.435Z,3628
2017-06-12T14:39:17.405Z,3156
2017-06-12T14:40:27.377Z,2836
2017-06-12T14:41:37.665Z,2348
2017-06-12T14:42:47.954Z,1772
2017-06-12T14:43:58.240Z,1320
2017-06-12T14:45:08.540Z,1592
2017-06-12T14:46:18.524Z,1944
2017-06-12T14:47:28.809Z,2068
2017-06-12T14:48:39.113Z,2568
2017-06-12T14:49:49.398Z,2996
2017-06-12T14:50:59.684Z,2924
2017-06-12T14:52:09.960Z,2716
2017-06-12T14:53:20.254Z,2512
2017-06-12T14:54:30.565Z,2416
2017-06-12T14:55:40.849Z,2668
2017-06-12T14:56:50.522Z,2556
2017-06-12T14:58:00.491Z,2256
2017-06-12T14:59:10.784Z,1688
2017-06-12T15:00:21.064Z,1592
2017-06-12T15:01:31.356Z,2244
2017-06-12T15:02:41.642Z,2300
2017-06-12T15:03:51.941Z,2328
2017-06-12T15:05:01.911Z,2380
2017-06-12T15:06:11.897Z,2248
2017-06-12T15:07:22.179Z,2092
2017-06-12T15:08:32.152Z,1840
2017-06-12T15:09:42.174Z,2056
2017-06-12T15:10:52.465Z,1912
2017-06-12T15:12:02.430Z,1872
2017-06-12T15:13:12.710Z,1992
2017-06-12T15:14:23.000Z,2036
2017-06-12T15:15:33.029Z,2308
2017-06-12T15:16:43.314Z,2716
2017-06-12T15:17:53.297Z,2712
2017-06-12T15:19:03.583Z,2456
2017-06-12T15:20:13.571Z,1856
2017-06-12T15:21:23.544Z,1300
2017-06-12T15:22:33.826Z,1152
2017-06-12T15:23:43.813Z,1040
2017-06-12T15:24:53.796Z,1072
2017-06-12T15:26:04.098Z,1068
2017-06-12T15:27:14.376Z,1060
2017-06-12T15:28:24.661Z,1020
2017-06-12T15:29:34.332Z,1028
2017-06-12T15:30:44.627Z,1068
2017-06-12T15:31:54.917Z,1144
2017-06-12T15:33:05.195Z,1296
2017-06-12T15:34:15.189Z,1164
2017-06-12T15:35:25.480Z,1212
2017-06-12T15:36:35.467Z,1300
2017-06-12T15:37:45.448Z,1280
2017-06-12T15:38:55.423Z,1404
2017-06-12T15:40:05.395Z,1404
2017-06-12T15:41:15.368Z,1284
2017-06-12T15:42:25.676Z,1196
2017-06-12T15:43:35.652Z,1168
2017-06-12T15:44:45.935Z,1144
2017-06-12T15:45:56.233Z,1132
2017-06-12T15:47:06.534Z,1164
2017-06-12T15:48:16.817Z,1216
2017-06-12T15:49:27.101Z,1260
2017-06-12T15:50:37.396Z,1368
2017-06-12T15:51:47.695Z,1668
2017-06-12T15:52:57.356Z,1968
2017-06-12T15:54:07.646Z,2276
2017-06-12T15:55:17.316Z,2616
2017-06-12T15:56:27.598Z,2308
2017-06-12T15:57:37.888Z,1652
2017-06-12T15:58:47.551Z,1268